createdAt,value
2018-11-23T00:00:48.128Z,48.17
2018-11-23T00:01:52.997Z,46.48
2018-11-23T00:02:58.490Z,49.55
2018-11-23T00:04:03.325Z,47.90
2018-11-23T00:05:08.168Z,48.52
2018-11-23T00:06:13.018Z,47.45
2018-11-23T00:07:17.871Z,49.13
2018-11-23T00:08:22.736Z,49.27
2018-11-23T00:09:27.579Z,49.98
2018-11-23T00:10:33.466Z,48.05
2018-11-23T00:11:38.298Z,47.83
2018-11-23T00:12:43.240Z,49.55
2018-11-23T00:13:48.075Z,49.88
2018-11-23T00:14:52.914Z,49.15
2018-11-23T00:15:57.780Z,50.20
2018-11-23T00:17:02.652Z,48.80
2018-11-23T00:18:07.489Z,49.13
2018-11-23T00:19:12.338Z,50.33
2018-11-23T00:20:20.986Z,48.63
2018-11-23T00:21:25.837Z,49.80
2018-11-23T00:22:30.691Z,48.13
2018-11-23T00:23:35.523Z,47.75
2018-11-23T00:24:40.376Z,51.37
2018-11-23T00:25:45.196Z,49.88
2018-11-23T00:26:50.051Z,50.12
2018-11-23T00:27:55.378Z,48.25
2018-11-23T00:29:00.228Z,47.93
2018-11-23T00:30:05.463Z,50.78
2018-11-23T00:31:10.299Z,52.48
2018-11-23T00:32:15.140Z,51.70
2018-11-23T00:33:19.974Z,47.62
2018-11-23T00:34:24.818Z,48.70
2018-11-23T00:35:30.759Z,48.40
2018-11-23T00:36:35.601Z,49.58
2018-11-23T00:37:40.440Z,48.83
2018-11-23T00:38:45.268Z,52.13
2018-11-23T00:39:50.115Z,49.45
2018-11-23T00:40:54.943Z,48.02
2018-11-23T00:41:59.805Z,49.67
2018-11-23T00:43:04.671Z,52.53
2018-11-23T00:44:09.498Z,48.02
2018-11-23T00:45:14.433Z,49.13
2018-11-23T00:46:19.277Z,48.42
2018-11-23T00:47:24.126Z,48.60
2018-11-23T00:48:28.957Z,48.73
2018-11-23T00:49:33.818Z,50.03
2018-11-23T00:50:38.668Z,47.88
2018-11-23T00:51:43.638Z,48.28
2018-11-23T00:52:48.815Z,47.43
2018-11-23T00:53:53.650Z,49.03
2018-11-23T00:54:58.476Z,49.65
2018-11-23T00:56:03.336Z,49.80
2018-11-23T00:57:08.206Z,48.87
2018-11-23T00:58:13.042Z,48.45
2018-11-23T00:59:17.882Z,49.83
2018-11-23T01:00:24.048Z,48.68
2018-11-23T01:01:33.044Z,48.60
2018-11-23T01:02:37.886Z,47.95
2018-11-23T01:03:42.739Z,50.80
2018-11-23T01:04:47.574Z,48.70
2018-11-23T01:05:52.409Z,48.98
2018-11-23T01:06:57.265Z,50.70
2018-11-23T01:08:02.123Z,49.08
2018-11-23T01:09:11.134Z,49.93
2018-11-23T01:10:17.556Z,50.23
2018-11-23T01:11:22.405Z,48.63
2018-11-23T01:12:27.255Z,48.60
2018-11-23T01:13:32.099Z,49.42
2018-11-23T01:14:36.927Z,48.68
2018-11-23T01:15:41.761Z,50.35
2018-11-23T01:16:46.590Z,49.50
2018-11-23T01:17:51.441Z,49.90
2018-11-23T01:18:56.285Z,46.90
2018-11-23T01:20:01.127Z,46.53
2018-11-23T01:21:05.971Z,48.80
2018-11-23T01:22:10.815Z,47.03
2018-11-23T01:23:15.679Z,49.53
2018-11-23T01:24:20.539Z,48.92
2018-11-23T01:25:26.270Z,45.20
2018-11-23T01:26:31.101Z,47.95
2018-11-23T01:27:35.949Z,49.10
2018-11-23T01:28:40.786Z,48.28
2018-11-23T01:29:45.620Z,46.28
2018-11-23T01:30:50.453Z,49.58
2018-11-23T01:31:55.641Z,48.60
2018-11-23T01:33:00.619Z,47.70
2018-11-23T01:34:05.558Z,47.75
2018-11-23T01:35:10.391Z,47.70
2018-11-23T01:36:15.230Z,48.08
2018-11-23T01:37:20.069Z,48.48
2018-11-23T01:38:24.924Z,45.65
2018-11-23T01:39:29.763Z,48.02
2018-11-23T01:40:34.605Z,47.10
2018-11-23T01:41:39.682Z,48.52
2018-11-23T01:42:44.682Z,47.23
2018-11-23T01:43:49.537Z,48.75
2018-11-23T01:44:54.365Z,49.33
2018-11-23T01:45:59.197Z,46.20
2018-11-23T01:47:04.059Z,49.30
2018-11-23T01:48:08.926Z,49.42
2018-11-23T01:49:13.761Z,48.20
2018-11-23T01:50:20.137Z,47.80
2018-11-23T01:51:24.972Z,47.55
2018-11-23T01:52:29.819Z,47.90
2018-11-23T01:53:34.670Z,47.78
2018-11-23T01:54:39.561Z,48.70
2018-11-23T01:55:44.414Z,48.23
2018-11-23T01:56:49.276Z,51.23
2018-11-23T01:57:54.107Z,49.50
2018-11-23T01:58:59.101Z,48.30
2018-11-23T02:00:03.991Z,48.05
2018-11-23T02:01:08.830Z,50.03
2018-11-23T02:02:13.685Z,51.55
2018-11-23T02:03:18.523Z,49.23
2018-11-23T02:04:24.934Z,49.98
2018-11-23T02:05:28.221Z,47.00
2018-11-23T02:06:33.078Z,49.55
2018-11-23T02:07:38.357Z,47.65
2018-11-23T02:08:43.214Z,49.50
2018-11-23T02:09:48.057Z,50.08
2018-11-23T02:10:52.897Z,47.58
2018-11-23T02:11:57.737Z,49.83
2018-11-23T02:13:02.595Z,49.73
2018-11-23T02:14:07.451Z,50.35
2018-11-23T02:15:19.854Z,49.27
2018-11-23T02:16:24.680Z,50.20
2018-11-23T02:17:29.511Z,49.70
2018-11-23T02:18:34.348Z,50.03
2018-11-23T02:19:39.187Z,48.90
2018-11-23T02:20:44.028Z,48.08
2018-11-23T02:21:48.863Z,47.58
2018-11-23T02:22:53.697Z,49.05
2018-11-23T02:23:58.556Z,50.55
2018-11-23T02:25:03.394Z,49.15
2018-11-23T02:26:08.227Z,49.73
2018-11-23T02:27:13.062Z,49.98
2018-11-23T02:28:17.895Z,50.30
2018-11-23T02:29:22.736Z,51.00
2018-11-23T02:30:27.695Z,52.73
2018-11-23T02:31:32.978Z,50.85
2018-11-23T02:32:37.811Z,50.48
2018-11-23T02:33:42.641Z,49.45
2018-11-23T02:34:47.485Z,50.80
2018-11-23T02:35:52.332Z,49.63
2018-11-23T02:36:57.159Z,51.88
2018-11-23T02:38:02.007Z,50.50
2018-11-23T02:39:08.371Z,49.60
2018-11-23T02:40:14.475Z,49.58
2018-11-23T02:41:19.308Z,50.08
2018-11-23T02:42:24.146Z,49.80
2018-11-23T02:43:28.981Z,49.98
2018-11-23T02:44:33.858Z,50.70
2018-11-23T02:45:38.696Z,51.53
2018-11-23T02:46:43.547Z,49.08
2018-11-23T02:47:48.883Z,48.80
2018-11-23T02:48:53.713Z,50.88
2018-11-23T02:49:58.577Z,48.50
2018-11-23T02:51:03.441Z,49.77
2018-11-23T02:52:08.329Z,49.03
2018-11-23T02:53:13.162Z,51.80
2018-11-23T02:54:18.014Z,47.98
2018-11-23T02:55:22.845Z,52.80
2018-11-23T02:56:27.687Z,50.92
2018-11-23T02:57:32.516Z,52.05
2018-11-23T02:58:37.349Z,47.75
2018-11-23T02:59:42.214Z,51.33
2018-11-23T03:00:47.055Z,52.00
2018-11-23T03:01:51.900Z,50.05
2018-11-23T03:02:56.759Z,50.90
2018-11-23T03:04:01.629Z,49.20
2018-11-23T03:05:07.050Z,49.38
2018-11-23T03:06:11.884Z,51.35
2018-11-23T03:07:16.718Z,52.20
2018-11-23T03:08:21.552Z,51.00
2018-11-23T03:09:26.424Z,52.13
2018-11-23T03:10:31.256Z,52.78
2018-11-23T03:11:36.517Z,53.58
2018-11-23T03:12:41.793Z,51.85
2018-11-23T03:13:46.628Z,51.15
2018-11-23T03:14:51.467Z,53.13
2018-11-23T03:15:56.305Z,50.88
2018-11-23T03:17:01.140Z,52.38
2018-11-23T03:18:06.005Z,50.38
2018-11-23T03:19:10.847Z,52.48
2018-11-23T03:20:24.828Z,51.53
2018-11-23T03:21:29.653Z,50.35
2018-11-23T03:22:34.486Z,48.73
2018-11-23T03:23:39.331Z,53.95
2018-11-23T03:24:44.216Z,50.73
2018-11-23T03:25:49.046Z,51.73
2018-11-23T03:26:53.884Z,51.33
2018-11-23T03:27:58.727Z,51.90
2018-11-23T03:29:03.567Z,51.40
2018-11-23T03:30:23.368Z,49.63
2018-11-23T03:31:28.192Z,50.00
2018-11-23T03:32:33.020Z,51.28
2018-11-23T03:33:37.854Z,49.90
2018-11-23T03:34:42.739Z,50.17
2018-11-23T03:35:47.569Z,50.95
2018-11-23T03:36:52.406Z,51.42
2018-11-23T03:37:57.237Z,50.43
2018-11-23T03:39:02.069Z,50.50
2018-11-23T03:40:07.027Z,50.48
2018-11-23T03:41:11.850Z,51.13
2018-11-23T03:42:16.680Z,50.17
2018-11-23T03:43:21.518Z,48.60
2018-11-23T03:44:26.367Z,49.93
2018-11-23T03:45:31.224Z,50.28
2018-11-23T03:46:36.055Z,48.52
2018-11-23T03:47:41.327Z,48.92
2018-11-23T03:48:46.125Z,51.85
2018-11-23T03:49:50.974Z,53.38
2018-11-23T03:50:55.810Z,51.80
2018-11-23T03:52:00.638Z,51.55
2018-11-23T03:53:05.478Z,50.43
2018-11-23T03:54:10.309Z,51.13
2018-11-23T03:55:15.163Z,51.65
2018-11-23T03:56:20.015Z,50.80
2018-11-23T03:57:24.842Z,48.80
2018-11-23T03:58:29.728Z,46.10
2018-11-23T03:59:34.522Z,49.45
2018-11-23T04:00:39.368Z,50.33
2018-11-23T04:01:44.218Z,50.00
2018-11-23T04:02:49.538Z,50.05
2018-11-23T04:03:54.332Z,50.60
2018-11-23T04:04:59.183Z,48.60
2018-11-23T04:06:04.028Z,49.67
2018-11-23T04:07:08.874Z,48.08
2018-11-23T04:08:13.718Z,49.18
2018-11-23T04:09:18.557Z,50.98
2018-11-23T04:10:23.398Z,47.78
2018-11-23T04:11:28.240Z,48.58
2018-11-23T04:12:33.069Z,51.60
2018-11-23T04:13:37.902Z,48.42
2018-11-23T04:14:42.753Z,47.75
2018-11-23T04:15:47.596Z,50.20
2018-11-23T04:16:52.456Z,49.73
2018-11-23T04:17:57.296Z,50.28
2018-11-23T04:19:02.140Z,49.80
2018-11-23T04:20:08.836Z,46.35
2018-11-23T04:21:13.674Z,47.33
2018-11-23T04:22:19.255Z,49.38
2018-11-23T04:23:23.352Z,49.33
2018-11-23T04:24:28.190Z,49.40
2018-11-23T04:25:33.023Z,47.38
2018-11-23T04:26:37.859Z,49.40
2018-11-23T04:27:43.238Z,48.28
2018-11-23T04:28:48.073Z,48.17
2018-11-23T04:29:52.945Z,48.10
2018-11-23T04:30:57.797Z,50.10
2018-11-23T04:32:02.623Z,50.05
2018-11-23T04:33:07.486Z,48.68
2018-11-23T04:34:12.325Z,49.83
2018-11-23T04:35:18.414Z,48.90
2018-11-23T04:36:23.241Z,48.10
2018-11-23T04:37:28.068Z,49.90
2018-11-23T04:38:32.899Z,49.80
2018-11-23T04:39:37.728Z,46.95
2018-11-23T04:40:42.574Z,49.30
2018-11-23T04:41:47.402Z,50.90
2018-11-23T04:42:52.242Z,49.40
2018-11-23T04:43:57.082Z,50.20
2018-11-23T04:45:01.914Z,51.10
2018-11-23T04:46:07.087Z,50.10
2018-11-23T04:47:11.983Z,51.65
2018-11-23T04:48:16.816Z,50.08
2018-11-23T04:49:21.653Z,51.45
2018-11-23T04:50:26.516Z,51.63
2018-11-23T04:51:31.344Z,48.63
2018-11-23T04:52:36.184Z,50.15
2018-11-23T04:53:41.020Z,48.15
2018-11-23T04:54:45.860Z,50.45
2018-11-23T04:55:50.704Z,50.38
2018-11-23T04:56:55.537Z,50.55
2018-11-23T04:58:00.373Z,51.50
2018-11-23T04:59:05.488Z,50.88
2018-11-23T05:00:12.415Z,50.03
2018-11-23T05:01:17.251Z,50.17
2018-11-23T05:02:22.089Z,49.03
2018-11-23T05:03:26.928Z,48.83
2018-11-23T05:04:31.762Z,49.23
2018-11-23T05:05:36.612Z,52.33
2018-11-23T05:06:41.461Z,49.65
2018-11-23T05:07:47.376Z,50.83
2018-11-23T05:08:52.216Z,50.23
2018-11-23T05:09:57.058Z,50.48
2018-11-23T05:11:01.899Z,48.23
2018-11-23T05:12:06.821Z,48.85
2018-11-23T05:13:11.646Z,50.63
2018-11-23T05:14:16.496Z,49.50
2018-11-23T05:15:21.337Z,49.20
2018-11-23T05:16:26.182Z,49.08
2018-11-23T05:17:31.012Z,46.77
2018-11-23T05:18:35.917Z,49.00
2018-11-23T05:19:40.765Z,49.80
2018-11-23T05:20:45.614Z,48.75
2018-11-23T05:21:50.450Z,49.23
2018-11-23T05:22:55.310Z,48.92
2018-11-23T05:24:00.149Z,50.38
2018-11-23T05:25:05.037Z,49.70
2018-11-23T05:26:09.898Z,51.05
2018-11-23T05:27:14.747Z,48.58
2018-11-23T05:28:19.619Z,47.73
2018-11-23T05:29:24.407Z,47.85
2018-11-23T05:30:29.243Z,48.00
2018-11-23T05:31:34.088Z,47.78
2018-11-23T05:32:39.079Z,49.65
2018-11-23T05:33:43.904Z,51.00
2018-11-23T05:34:48.746Z,49.05
2018-11-23T05:35:53.614Z,49.65
2018-11-23T05:36:58.458Z,49.63
2018-11-23T05:38:03.292Z,48.48
2018-11-23T05:39:09.684Z,50.55
2018-11-23T05:40:16.444Z,49.75
2018-11-23T05:41:21.319Z,49.88
2018-11-23T05:42:26.149Z,51.20
2018-11-23T05:43:30.985Z,49.27
2018-11-23T05:44:35.820Z,49.67
2018-11-23T05:45:40.658Z,48.02
2018-11-23T05:46:45.507Z,50.35
2018-11-23T05:47:50.507Z,51.18
2018-11-23T05:48:55.358Z,49.63
2018-11-23T05:50:00.194Z,47.48
2018-11-23T05:51:05.049Z,50.00
2018-11-23T05:52:09.911Z,46.02
2018-11-23T05:53:14.750Z,50.88
2018-11-23T05:54:19.579Z,47.73
2018-11-23T05:55:24.420Z,49.83
2018-11-23T05:56:29.304Z,47.75
2018-11-23T05:57:34.129Z,48.92
2018-11-23T05:58:38.958Z,47.80
2018-11-23T05:59:43.792Z,47.25
2018-11-23T06:00:48.622Z,48.75
2018-11-23T06:01:53.842Z,49.55
2018-11-23T06:02:58.713Z,50.10
2018-11-23T06:04:03.555Z,47.38
2018-11-23T06:05:08.713Z,48.08
2018-11-23T06:06:13.543Z,48.45
2018-11-23T06:07:18.400Z,46.63
2018-11-23T06:08:23.239Z,49.00
2018-11-23T06:09:28.060Z,49.15
2018-11-23T06:10:34.704Z,48.48
2018-11-23T06:11:37.808Z,47.23
2018-11-23T06:12:42.824Z,48.55
2018-11-23T06:13:47.675Z,47.75
2018-11-23T06:14:52.542Z,48.35
2018-11-23T06:15:57.374Z,47.30
2018-11-23T06:17:02.219Z,48.20
2018-11-23T06:18:07.235Z,47.75
2018-11-23T06:19:12.083Z,46.90
2018-11-23T06:20:18.862Z,45.23
2018-11-23T06:21:23.691Z,45.55
2018-11-23T06:22:28.519Z,46.73
2018-11-23T06:23:33.361Z,46.70
2018-11-23T06:24:38.192Z,47.88
2018-11-23T06:25:48.171Z,47.33
2018-11-23T06:26:53.014Z,47.53
2018-11-23T06:27:57.857Z,47.62
2018-11-23T06:29:02.712Z,45.88
2018-11-23T06:30:08.721Z,46.05
2018-11-23T06:31:13.851Z,46.45
2018-11-23T06:32:54.274Z,46.58
2018-11-23T06:33:59.127Z,45.28
2018-11-23T06:35:03.979Z,45.28
2018-11-23T06:36:08.813Z,46.37
2018-11-23T06:37:13.647Z,46.45
2018-11-23T06:38:18.487Z,44.83
2018-11-23T06:39:23.349Z,46.73
2018-11-23T06:40:28.206Z,44.50
2018-11-23T06:41:33.038Z,46.55
2018-11-23T06:42:42.161Z,44.58
2018-11-23T06:43:42.755Z,46.65
2018-11-23T06:44:47.593Z,45.43
2018-11-23T06:45:52.425Z,45.55
2018-11-23T06:46:57.274Z,44.23
2018-11-23T06:48:02.119Z,44.25
2018-11-23T06:49:06.978Z,45.88
2018-11-23T06:50:13.907Z,46.10
2018-11-23T06:51:18.742Z,48.52
2018-11-23T06:52:23.565Z,45.73
2018-11-23T06:53:28.447Z,45.08
2018-11-23T06:54:33.277Z,44.75
2018-11-23T06:55:38.128Z,45.90
2018-11-23T06:56:42.955Z,45.38
2018-11-23T06:57:47.801Z,46.15
2018-11-23T06:58:52.647Z,45.58
2018-11-23T06:59:57.503Z,43.68
2018-11-23T07:01:02.333Z,42.10
2018-11-23T07:02:07.385Z,44.42
2018-11-23T07:03:12.250Z,44.70
2018-11-23T07:04:17.107Z,45.25
2018-11-23T07:05:21.944Z,44.18
2018-11-23T07:06:26.779Z,43.75
2018-11-23T07:07:31.645Z,42.27
2018-11-23T07:08:36.517Z,42.83
2018-11-23T07:09:41.371Z,42.53
2018-11-23T07:10:46.229Z,43.00
2018-11-23T07:11:51.056Z,44.03
2018-11-23T07:12:55.916Z,44.42
2018-11-23T07:14:04.073Z,43.38
2018-11-23T07:15:06.246Z,43.05
2018-11-23T07:16:11.088Z,42.48
2018-11-23T07:17:15.923Z,45.48
2018-11-23T07:18:20.752Z,44.58
2018-11-23T07:19:25.879Z,42.25
2018-11-23T07:20:30.759Z,42.48
2018-11-23T07:21:35.634Z,42.75
2018-11-23T07:22:41.092Z,42.48
2018-11-23T07:23:45.948Z,43.30
2018-11-23T07:24:50.783Z,43.85
2018-11-23T07:25:55.626Z,45.88
2018-11-23T07:27:00.480Z,44.95
2018-11-23T07:28:05.328Z,45.00
2018-11-23T07:29:10.184Z,42.17
2018-11-23T07:30:17.336Z,43.58
2018-11-23T07:31:22.174Z,44.75
2018-11-23T07:32:27.027Z,43.73
2018-11-23T07:33:31.883Z,42.95
2018-11-23T07:34:36.736Z,42.65
2018-11-23T07:35:41.573Z,42.45
2018-11-23T07:36:46.405Z,44.35
2018-11-23T07:37:51.275Z,43.98
2018-11-23T07:38:56.119Z,42.00
2018-11-23T07:40:41.353Z,42.95
2018-11-23T07:42:17.474Z,41.58
2018-11-23T07:43:22.306Z,40.67
2018-11-23T07:44:27.150Z,43.15
2018-11-23T07:45:32.116Z,43.92
2018-11-23T07:46:36.954Z,42.33
2018-11-23T07:47:41.844Z,43.78
2018-11-23T07:48:46.704Z,42.85
2018-11-23T07:49:51.568Z,44.10
2018-11-23T07:50:56.427Z,44.85
2018-11-23T07:52:01.275Z,44.55
2018-11-23T07:53:06.227Z,45.45
2018-11-23T07:54:11.071Z,43.87
2018-11-23T07:55:15.917Z,43.87
2018-11-23T07:56:20.756Z,42.83
2018-11-23T07:57:25.593Z,40.60
2018-11-23T07:58:30.433Z,42.17
2018-11-23T07:59:35.539Z,41.05
2018-11-23T08:00:40.391Z,41.02
2018-11-23T08:01:45.217Z,41.90
2018-11-23T08:02:50.274Z,42.35
2018-11-23T08:03:55.115Z,41.48
2018-11-23T08:04:59.965Z,40.48
2018-11-23T08:06:04.812Z,40.73
2018-11-23T08:07:10.727Z,41.10
2018-11-23T08:08:15.554Z,41.55
2018-11-23T08:09:20.380Z,42.85
2018-11-23T08:10:24.148Z,41.50
2018-11-23T08:11:28.980Z,40.03
2018-11-23T08:12:33.819Z,41.85
2018-11-23T08:13:39.144Z,43.52
2018-11-23T08:14:43.987Z,42.40
2018-11-23T08:15:48.829Z,43.65
2018-11-23T08:16:53.922Z,42.15
2018-11-23T08:17:58.759Z,41.85
2018-11-23T08:19:03.617Z,41.25
2018-11-23T08:20:09.580Z,44.33
2018-11-23T08:21:14.422Z,43.02
2018-11-23T08:22:19.252Z,43.35
2018-11-23T08:23:24.082Z,44.23
2018-11-23T08:24:28.913Z,45.12
2018-11-23T08:25:33.777Z,42.38
2018-11-23T08:26:38.623Z,42.75
2018-11-23T08:27:44.193Z,45.65
2018-11-23T08:28:49.027Z,41.85
2018-11-23T08:29:53.858Z,45.63
2018-11-23T08:30:58.715Z,43.95
2018-11-23T08:32:03.552Z,44.55
2018-11-23T08:33:08.379Z,42.33
2018-11-23T08:34:13.261Z,43.42
2018-11-23T08:35:18.134Z,43.70
2018-11-23T08:36:22.983Z,42.95
2018-11-23T08:37:27.823Z,43.02
2018-11-23T08:38:32.651Z,41.50
2018-11-23T08:39:37.503Z,42.35
2018-11-23T08:40:42.342Z,43.13
2018-11-23T08:41:47.195Z,44.20
2018-11-23T08:42:52.688Z,42.75
2018-11-23T08:43:57.516Z,42.53
2018-11-23T08:45:02.353Z,43.58
2018-11-23T08:46:07.192Z,43.58
2018-11-23T08:47:12.017Z,41.25
2018-11-23T08:48:16.870Z,42.15
2018-11-23T08:49:21.699Z,39.78
2018-11-23T08:50:28.011Z,42.43
2018-11-23T08:51:32.886Z,42.43
2018-11-23T08:52:37.733Z,40.65
2018-11-23T08:53:42.572Z,43.42
2018-11-23T08:54:47.402Z,40.65
2018-11-23T08:55:52.239Z,42.73
2018-11-23T08:56:57.082Z,45.45
2018-11-23T08:58:01.953Z,44.63
2018-11-23T08:59:06.795Z,43.75
2018-11-23T09:00:25.598Z,43.35
2018-11-23T09:01:30.438Z,42.73
2018-11-23T09:02:35.269Z,40.40
2018-11-23T09:03:40.148Z,42.65
2018-11-23T09:04:44.930Z,42.48
2018-11-23T09:05:49.771Z,41.98
2018-11-23T09:06:54.606Z,44.58
2018-11-23T09:07:59.669Z,43.17
2018-11-23T09:09:05.625Z,43.92
2018-11-23T09:10:13.321Z,43.98
2018-11-23T09:11:18.149Z,43.80
2018-11-23T09:12:22.994Z,42.50
2018-11-23T09:13:27.918Z,42.08
2018-11-23T09:14:32.749Z,45.92
2018-11-23T09:15:37.583Z,44.10
2018-11-23T09:16:42.454Z,41.98
2018-11-23T09:17:47.351Z,44.35
2018-11-23T09:18:52.175Z,41.75
2018-11-23T09:19:57.008Z,43.65
2018-11-23T09:21:01.845Z,43.70
2018-11-23T09:22:07.189Z,42.53
2018-11-23T09:23:12.060Z,42.70
2018-11-23T09:24:16.923Z,42.43
2018-11-23T09:25:22.659Z,43.13
2018-11-23T09:26:27.491Z,43.33
2018-11-23T09:27:32.435Z,42.73
2018-11-23T09:28:37.267Z,43.08
2018-11-23T09:29:42.143Z,42.10
2018-11-23T09:30:46.976Z,43.50
2018-11-23T09:31:51.815Z,43.45
2018-11-23T09:32:57.340Z,42.62
2018-11-23T09:34:02.171Z,41.58
2018-11-23T09:35:08.018Z,43.55
2018-11-23T09:36:12.838Z,43.95
2018-11-23T09:37:17.729Z,41.90
2018-11-23T09:38:22.569Z,42.55
2018-11-23T09:39:27.423Z,43.42
2018-11-23T09:40:32.308Z,42.45
2018-11-23T09:41:37.176Z,42.15
2018-11-23T09:42:42.336Z,42.20
2018-11-23T09:43:47.165Z,42.58
2018-11-23T09:44:52.024Z,43.42
2018-11-23T09:45:56.899Z,40.80
2018-11-23T09:47:01.730Z,40.95
2018-11-23T09:48:07.177Z,42.62
2018-11-23T09:49:12.013Z,39.08
2018-11-23T09:50:18.239Z,41.23
2018-11-23T09:51:23.070Z,43.98
2018-11-23T09:52:27.923Z,43.05
2018-11-23T09:53:32.769Z,39.95
2018-11-23T09:54:37.605Z,43.85
2018-11-23T09:55:42.444Z,41.13
2018-11-23T09:56:47.301Z,40.95
2018-11-23T09:57:52.181Z,43.08
2018-11-23T09:58:57.016Z,44.08
2018-11-23T10:00:01.871Z,40.58
2018-11-23T10:02:11.766Z,42.65
2018-11-23T10:03:16.628Z,41.00
2018-11-23T10:04:21.494Z,40.12
2018-11-23T10:05:27.075Z,41.90
2018-11-23T10:06:31.937Z,43.00
2018-11-23T10:07:36.766Z,40.10
2018-11-23T10:08:41.608Z,41.65
2018-11-23T10:09:46.441Z,41.35
2018-11-23T10:10:51.281Z,41.30
2018-11-23T10:11:56.157Z,42.30
2018-11-23T10:13:01.024Z,43.55
2018-11-23T10:14:06.141Z,39.73
2018-11-23T10:15:12.324Z,41.10
2018-11-23T10:16:17.184Z,41.73
2018-11-23T10:17:22.034Z,40.95
2018-11-23T10:18:26.876Z,42.43
2018-11-23T10:19:33.266Z,40.98
2018-11-23T10:20:38.186Z,41.75
2018-11-23T10:21:43.076Z,44.00
2018-11-23T10:22:48.293Z,43.02
2018-11-23T10:23:53.137Z,42.45
2018-11-23T10:24:57.991Z,43.58
2018-11-23T10:26:02.823Z,41.98
2018-11-23T10:27:07.691Z,42.05
2018-11-23T10:28:12.542Z,42.00
2018-11-23T10:29:17.402Z,42.43
2018-11-23T10:30:23.539Z,42.48
2018-11-23T10:31:28.384Z,41.68
2018-11-23T10:32:33.200Z,40.67
2018-11-23T10:33:38.027Z,42.08
2018-11-23T10:34:42.893Z,41.65
2018-11-23T10:35:47.734Z,40.63
2018-11-23T10:36:52.558Z,41.88
2018-11-23T10:37:58.525Z,41.08
2018-11-23T10:39:03.367Z,40.60
2018-11-23T10:40:10.974Z,41.55
2018-11-23T10:41:15.807Z,39.98
2018-11-23T10:42:20.649Z,42.08
2018-11-23T10:43:25.483Z,40.20
2018-11-23T10:44:30.325Z,40.17
2018-11-23T10:45:35.485Z,39.48
2018-11-23T10:46:40.455Z,42.20
2018-11-23T10:47:45.361Z,40.05
2018-11-23T10:48:50.197Z,41.80
2018-11-23T10:49:55.050Z,38.48
2018-11-23T10:50:59.888Z,40.63
2018-11-23T10:52:04.741Z,39.90
2018-11-23T10:53:09.579Z,39.58
2018-11-23T10:54:14.426Z,38.75
2018-11-23T10:55:21.054Z,36.38
2018-11-23T10:56:25.885Z,38.83
2018-11-23T10:57:30.745Z,39.75
2018-11-23T10:58:35.591Z,39.53
2018-11-23T10:59:40.435Z,39.53
2018-11-23T11:01:02.364Z,37.93
2018-11-23T11:02:24.421Z,38.48
2018-11-23T11:03:36.972Z,38.63
2018-11-23T11:05:12.720Z,38.10
2018-11-23T11:06:34.978Z,39.00
2018-11-23T11:07:39.809Z,38.03
2018-11-23T11:08:44.662Z,37.65
2018-11-23T11:09:49.489Z,38.73
2018-11-23T11:10:54.351Z,36.35
2018-11-23T11:11:59.178Z,36.28
2018-11-23T11:13:04.027Z,37.83
2018-11-23T11:14:08.988Z,36.75
2018-11-23T11:15:13.841Z,39.08
2018-11-23T11:16:18.692Z,35.88
2018-11-23T11:17:23.532Z,37.25
2018-11-23T11:18:28.381Z,39.38
2018-11-23T11:19:33.209Z,36.77
2018-11-23T11:20:38.065Z,38.00
2018-11-23T11:21:42.898Z,37.65
2018-11-23T11:22:47.735Z,37.40
2018-11-23T11:23:52.581Z,37.05
2018-11-23T11:24:57.415Z,36.58
2018-11-23T11:26:02.253Z,36.50
2018-11-23T11:27:07.107Z,36.50
2018-11-23T11:28:11.937Z,36.83
2018-11-23T11:29:16.773Z,36.50
2018-11-23T11:30:21.758Z,36.88
2018-11-23T11:31:26.728Z,39.18
2018-11-23T11:32:31.573Z,36.83
2018-11-23T11:33:36.409Z,36.40
2018-11-23T11:34:41.267Z,34.53
2018-11-23T11:35:46.092Z,36.90
2018-11-23T11:36:50.962Z,35.15
2018-11-23T11:37:55.797Z,37.08
2018-11-23T11:39:00.652Z,35.30
2018-11-23T11:40:06.261Z,35.95
2018-11-23T11:41:11.132Z,37.58
2018-11-23T11:42:15.965Z,36.80
2018-11-23T11:43:20.816Z,35.43
2018-11-23T11:44:25.659Z,37.85
2018-11-23T11:45:30.493Z,35.40
2018-11-23T11:46:35.380Z,38.70
2018-11-23T11:47:40.366Z,37.67
2018-11-23T11:48:45.195Z,36.55
2018-11-23T11:49:50.029Z,35.90
2018-11-23T11:50:54.856Z,35.58
2018-11-23T11:51:59.718Z,36.17
2018-11-23T11:53:04.572Z,36.33
2018-11-23T11:54:09.409Z,35.45
2018-11-23T11:55:15.848Z,36.95
2018-11-23T11:56:20.699Z,35.92
2018-11-23T11:57:25.557Z,37.03
2018-11-23T11:58:30.395Z,37.55
2018-11-23T11:59:35.233Z,35.23
2018-11-23T12:00:40.076Z,35.83
2018-11-23T12:01:44.940Z,34.48
2018-11-23T12:02:49.769Z,35.58
2018-11-23T12:03:54.998Z,36.60
2018-11-23T12:04:59.845Z,38.23
2018-11-23T12:06:04.758Z,36.25
2018-11-23T12:07:09.600Z,37.83
2018-11-23T12:08:14.451Z,37.17
2018-11-23T12:09:19.300Z,37.10
2018-11-23T12:10:25.416Z,36.70
2018-11-23T12:11:30.263Z,36.75
2018-11-23T12:12:35.115Z,36.30
2018-11-23T12:13:39.947Z,37.53
2018-11-23T12:14:44.789Z,38.75
2018-11-23T12:15:49.635Z,36.40
2018-11-23T12:16:54.557Z,36.95
2018-11-23T12:17:59.386Z,36.10
2018-11-23T12:19:04.219Z,35.07
2018-11-23T12:20:14.422Z,35.60
2018-11-23T12:21:19.271Z,35.58
2018-11-23T12:22:24.105Z,36.73
2018-11-23T12:23:28.967Z,36.60
2018-11-23T12:24:33.812Z,36.50
2018-11-23T12:25:38.648Z,35.88
2018-11-23T12:26:43.500Z,36.33
2018-11-23T12:27:48.354Z,36.35
2018-11-23T12:28:53.210Z,37.63
2018-11-23T12:29:58.073Z,36.63
2018-11-23T12:31:02.899Z,38.35
2018-11-23T12:32:07.744Z,36.30
2018-11-23T12:33:12.608Z,36.73
2018-11-23T12:34:17.432Z,35.78
2018-11-23T12:35:22.795Z,37.67
2018-11-23T12:36:27.644Z,37.48
2018-11-23T12:37:32.501Z,36.25
2018-11-23T12:38:40.172Z,35.75
2018-11-23T12:39:42.180Z,37.43
2018-11-23T12:40:47.005Z,37.03
2018-11-23T12:41:51.819Z,36.47
2018-11-23T12:42:56.659Z,36.42
2018-11-23T12:44:01.493Z,35.17
2018-11-23T12:45:08.020Z,37.45
2018-11-23T12:46:12.844Z,38.13
2018-11-23T12:47:17.683Z,37.43
2018-11-23T12:48:22.504Z,37.33
2018-11-23T12:49:27.340Z,36.90
2018-11-23T12:50:32.167Z,37.23
2018-11-23T12:51:37.022Z,35.00
2018-11-23T12:52:41.855Z,39.33
2018-11-23T12:53:46.691Z,38.45
2018-11-23T12:54:51.524Z,37.03
2018-11-23T12:55:56.352Z,36.40
2018-11-23T12:57:01.217Z,38.78
2018-11-23T12:58:06.060Z,37.63
2018-11-23T12:59:10.904Z,37.60
2018-11-23T13:00:19.728Z,36.05
2018-11-23T13:01:24.575Z,35.58
2018-11-23T13:02:29.389Z,37.40
2018-11-23T13:03:34.206Z,35.60
2018-11-23T13:04:39.059Z,37.60
2018-11-23T13:05:43.872Z,34.70
2018-11-23T13:06:48.691Z,37.63
2018-11-23T13:07:54.335Z,35.50
2018-11-23T13:08:59.167Z,36.35
2018-11-23T13:10:04.040Z,34.50
2018-11-23T13:11:08.859Z,35.10
2018-11-23T13:12:13.714Z,34.83
2018-11-23T13:13:18.543Z,36.53
2018-11-23T13:14:23.363Z,35.30
2018-11-23T13:15:28.196Z,38.47
2018-11-23T13:16:33.019Z,35.50
2018-11-23T13:17:37.856Z,35.48
2018-11-23T13:18:42.684Z,37.93
2018-11-23T13:19:47.531Z,39.33
2018-11-23T13:20:52.379Z,36.10
2018-11-23T13:21:57.210Z,36.48
2018-11-23T13:23:02.050Z,37.28
2018-11-23T13:24:07.073Z,36.70
2018-11-23T13:25:13.940Z,35.20
2018-11-23T13:26:18.806Z,37.20
2018-11-23T13:27:23.656Z,37.17
2018-11-23T13:28:28.483Z,36.97
2018-11-23T13:29:33.332Z,36.33
2018-11-23T13:30:38.172Z,35.03
2018-11-23T13:31:42.995Z,37.53
2018-11-23T13:32:47.853Z,38.60
2018-11-23T13:33:53.474Z,36.03
2018-11-23T13:34:58.296Z,37.65
2018-11-23T13:36:03.144Z,36.70
2018-11-23T13:37:07.981Z,36.37
2018-11-23T13:38:12.811Z,37.30
2018-11-23T13:39:17.644Z,35.65
2018-11-23T13:40:23.795Z,36.73
2018-11-23T13:41:28.628Z,35.48
2018-11-23T13:42:33.452Z,35.73
2018-11-23T13:43:38.283Z,38.07
2018-11-23T13:44:43.120Z,37.98
2018-11-23T13:45:48.327Z,38.70
2018-11-23T13:46:53.149Z,37.35
2018-11-23T13:47:57.992Z,36.88
2018-11-23T13:49:02.830Z,35.83
2018-11-23T13:50:09.513Z,38.70
2018-11-23T13:51:14.357Z,38.30
2018-11-23T13:52:19.174Z,38.90
2018-11-23T13:53:24.015Z,37.17
2018-11-23T13:54:28.845Z,37.48
2018-11-23T13:55:33.689Z,37.15
2018-11-23T13:56:38.530Z,38.85
2018-11-23T13:57:43.363Z,36.75
2018-11-23T13:58:48.195Z,39.70
2018-11-23T13:59:53.329Z,37.20
2018-11-23T14:00:58.172Z,38.23
2018-11-23T14:02:03.023Z,35.45